createdAt,value
2023-03-24T00:05:18.786Z,12.58
2023-03-24T00:07:54.531Z,12.58
2023-03-24T00:10:25.322Z,12.56
2023-03-24T00:12:54.481Z,12.57
2023-03-24T00:15:24.152Z,12.58
2023-03-24T00:18:11.158Z,12.58
2023-03-24T00:20:42.809Z,12.57
2023-03-24T00:23:16.942Z,12.57
2023-03-24T00:25:46.002Z,12.56
2023-03-24T00:28:14.928Z,12.55
2023-03-24T00:30:43.993Z,12.55
2023-03-24T00:33:13.826Z,12.54
2023-03-24T00:35:45.930Z,12.53
2023-03-24T00:38:14.942Z,12.52
2023-03-24T00:40:48.990Z,12.53
2023-03-24T00:43:18.071Z,12.52
2023-03-24T00:45:48.436Z,12.52
2023-03-24T00:48:20.100Z,12.51
2023-03-24T00:50:53.326Z,12.55
2023-03-24T00:53:23.644Z,12.55
2023-03-24T00:55:53.070Z,12.54
2023-03-24T00:58:23.139Z,12.52
2023-03-24T01:00:55.951Z,12.51
2023-03-24T01:03:28.381Z,12.51
2023-03-24T01:06:09.061Z,12.50
2023-03-24T01:08:38.763Z,12.49
2023-03-24T01:11:09.234Z,12.50
2023-03-24T01:13:38.206Z,12.51
2023-03-24T01:16:12.893Z,12.49
2023-03-24T01:18:42.984Z,12.50
2023-03-24T01:21:35.449Z,12.48
2023-03-24T01:24:06.524Z,12.47
2023-03-24T01:26:41.303Z,12.46
2023-03-24T01:29:10.826Z,12.48
2023-03-24T01:31:42.016Z,12.47
2023-03-24T01:34:11.281Z,12.48
2023-03-24T01:36:51.043Z,12.48
2023-03-24T01:39:19.761Z,12.48
2023-03-24T01:41:48.897Z,12.46
2023-03-24T01:44:35.368Z,12.45
2023-03-24T01:47:08.280Z,12.45
2023-03-24T01:49:41.654Z,12.45
2023-03-24T01:52:19.310Z,12.46
2023-03-24T01:54:51.395Z,12.47
2023-03-24T01:57:28.244Z,12.49
2023-03-24T02:00:01.916Z,12.49
2023-03-24T02:02:35.072Z,12.48
2023-03-24T02:05:07.732Z,12.49
2023-03-24T02:07:46.793Z,12.48
2023-03-24T02:10:19.726Z,12.49
2023-03-24T02:12:50.995Z,12.51
2023-03-24T02:15:21.198Z,12.51
2023-03-24T02:18:02.245Z,12.51
2023-03-24T02:21:39.348Z,12.51
2023-03-24T02:25:10.165Z,12.51
2023-03-24T02:28:04.834Z,12.51
2023-03-24T02:31:03.563Z,12.51
2023-03-24T02:34:19.968Z,12.54
2023-03-24T02:37:52.527Z,12.56
2023-03-24T02:40:37.470Z,12.58
2023-03-24T02:43:22.736Z,12.59
2023-03-24T02:46:06.222Z,12.61
2023-03-24T02:48:47.037Z,12.64
2023-03-24T02:51:26.110Z,12.65
2023-03-24T02:54:07.379Z,12.65
2023-03-24T02:56:41.412Z,12.67
2023-03-24T02:59:20.225Z,12.68
2023-03-24T03:01:57.802Z,12.68
2023-03-24T03:04:34.177Z,12.70
2023-03-24T03:07:09.979Z,12.71
2023-03-24T03:09:43.220Z,12.72
2023-03-24T03:12:15.513Z,12.75
2023-03-24T03:14:53.713Z,12.75
2023-03-24T03:17:31.174Z,12.75
2023-03-24T03:20:05.355Z,12.74
2023-03-24T03:22:43.236Z,12.75
2023-03-24T03:25:15.740Z,12.77
2023-03-24T03:27:47.586Z,12.79
2023-03-24T03:30:23.522Z,12.79
2023-03-24T03:33:01.151Z,12.80
2023-03-24T03:35:36.588Z,12.81
2023-03-24T03:38:17.629Z,12.82
2023-03-24T03:40:54.759Z,12.82
2023-03-24T03:43:30.900Z,12.83
2023-03-24T03:46:01.569Z,12.84
2023-03-24T03:48:32.009Z,12.83
2023-03-24T03:51:13.077Z,12.85
2023-03-24T03:53:50.682Z,12.83
2023-03-24T03:56:22.048Z,12.86
2023-03-24T03:58:53.732Z,12.86
2023-03-24T04:01:28.459Z,12.77
2023-03-24T04:04:33.344Z,12.45
2023-03-24T04:07:17.464Z,12.23
2023-03-24T04:10:03.192Z,12.13
2023-03-24T04:13:09.953Z,12.09
2023-03-24T04:15:58.636Z,11.99
2023-03-24T04:19:35.208Z,11.86
2023-03-24T04:26:34.645Z,11.63
2023-03-24T04:30:27.423Z,11.57
2023-03-24T04:34:19.708Z,11.47
2023-03-24T04:37:03.308Z,11.38
2023-03-24T04:40:55.653Z,11.33
2023-03-24T04:48:12.202Z,11.14
2023-03-24T04:52:16.221Z,10.98
2023-03-24T04:57:57.629Z,10.91
2023-03-24T05:00:31.415Z,10.95
2023-03-24T05:03:00.293Z,10.94
2023-03-24T05:05:29.754Z,10.91
2023-03-24T05:08:00.347Z,10.91
2023-03-24T05:10:29.421Z,10.91
2023-03-24T05:12:58.320Z,10.92
2023-03-24T05:15:27.889Z,10.92
2023-03-24T05:17:57.084Z,10.92
2023-03-24T05:20:26.534Z,10.87
2023-03-24T05:22:56.045Z,10.87
2023-03-24T05:25:26.667Z,10.87
2023-03-24T05:27:55.710Z,10.86
2023-03-24T05:30:24.994Z,10.88
2023-03-24T05:32:53.828Z,10.88
2023-03-24T05:35:22.651Z,10.88
2023-03-24T05:37:51.284Z,10.86
2023-03-24T05:40:20.762Z,10.89
2023-03-24T05:42:52.187Z,10.92
2023-03-24T05:45:21.281Z,10.96
2023-03-24T05:47:51.481Z,10.99
2023-03-24T05:50:21.767Z,11.02
2023-03-24T05:52:50.967Z,11.07
2023-03-24T05:55:22.523Z,11.11
2023-03-24T05:57:52.424Z,11.15
2023-03-24T06:00:23.785Z,11.18
2023-03-24T06:02:52.686Z,11.21
2023-03-24T06:05:22.495Z,11.26
2023-03-24T06:07:51.580Z,11.29
2023-03-24T06:10:20.499Z,11.34
2023-03-24T06:12:49.514Z,11.37
2023-03-24T06:15:20.146Z,11.37
2023-03-24T06:17:50.371Z,11.38
2023-03-24T06:20:19.654Z,11.36
2023-03-24T06:22:50.742Z,11.37
2023-03-24T06:25:21.986Z,11.39
2023-03-24T06:27:52.156Z,11.41
2023-03-24T06:30:23.896Z,11.43
2023-03-24T06:32:52.824Z,11.46
2023-03-24T06:35:21.448Z,11.44
2023-03-24T06:37:50.323Z,11.42
2023-03-24T06:40:19.776Z,11.42
2023-03-24T06:42:49.776Z,11.45
2023-03-24T06:45:18.466Z,11.46
2023-03-24T06:47:48.973Z,11.48
2023-03-24T06:50:20.340Z,11.51
2023-03-24T06:52:48.924Z,11.53
2023-03-24T06:55:17.798Z,11.55
2023-03-24T06:57:49.480Z,11.59
2023-03-24T07:00:19.940Z,11.63
2023-03-24T07:02:50.188Z,11.67
2023-03-24T07:05:19.444Z,11.71
2023-03-24T07:10:21.958Z,11.74
2023-03-24T07:12:50.651Z,11.77
2023-03-24T07:15:19.350Z,11.82
2023-03-24T07:17:49.483Z,11.89
2023-03-24T07:20:18.470Z,11.96
2023-03-24T07:22:47.278Z,11.96
2023-03-24T07:25:20.149Z,11.97
2023-03-24T07:27:49.029Z,11.98
2023-03-24T07:30:20.565Z,12.02
2023-03-24T07:32:58.422Z,12.03
2023-03-24T07:35:28.156Z,12.03
2023-03-24T07:38:00.152Z,12.05
2023-03-24T07:40:30.450Z,12.09
2023-03-24T07:43:04.136Z,12.14
2023-03-24T07:45:33.066Z,12.18
2023-03-24T07:48:03.703Z,12.22
2023-03-24T07:50:33.320Z,12.25
2023-03-24T07:53:01.929Z,12.25
2023-03-24T07:55:30.835Z,12.28
2023-03-24T07:57:59.469Z,12.30
2023-03-24T08:00:29.624Z,12.29
2023-03-24T08:02:58.268Z,12.30
2023-03-24T08:05:31.181Z,12.35
2023-03-24T08:08:00.279Z,12.40
2023-03-24T08:10:30.782Z,12.42
2023-03-24T08:13:00.499Z,12.39
2023-03-24T08:15:30.327Z,12.36
2023-03-24T08:17:58.935Z,12.38
2023-03-24T08:20:29.788Z,12.37
2023-03-24T08:22:58.345Z,12.38
2023-03-24T08:25:29.004Z,12.43
2023-03-24T08:27:58.828Z,12.48
2023-03-24T08:30:29.462Z,12.49
2023-03-24T08:33:01.334Z,12.52
2023-03-24T08:35:35.276Z,12.56
2023-03-24T08:38:06.854Z,12.59
2023-03-24T08:40:37.492Z,12.64
2023-03-24T08:43:09.398Z,12.70
2023-03-24T08:45:39.835Z,12.81
2023-03-24T08:48:09.666Z,13.03
2023-03-24T08:50:42.310Z,13.05
2023-03-24T08:53:12.566Z,13.02
2023-03-24T08:55:43.963Z,12.94
2023-03-24T08:58:16.632Z,12.81
2023-03-24T09:00:46.588Z,12.82
2023-03-24T09:03:18.708Z,12.80
2023-03-24T09:05:49.785Z,12.75
2023-03-24T09:08:20.518Z,12.72
2023-03-24T09:10:49.926Z,12.85
2023-03-24T09:13:20.693Z,13.09
2023-03-24T09:15:51.904Z,13.29
2023-03-24T09:18:23.325Z,13.37
2023-03-24T09:20:53.616Z,13.31
2023-03-24T09:23:23.270Z,13.23
2023-03-24T09:25:52.398Z,13.08
2023-03-24T09:28:21.716Z,12.92
2023-03-24T09:30:50.507Z,12.73
2023-03-24T09:33:19.436Z,12.61
2023-03-24T09:35:59.729Z,12.60
2023-03-24T09:38:30.433Z,12.58
2023-03-24T09:41:03.154Z,12.54
2023-03-24T09:43:39.691Z,12.56
2023-03-24T09:46:14.936Z,12.68
2023-03-24T09:48:50.392Z,12.83
2023-03-24T09:51:26.454Z,13.06
2023-03-24T09:54:03.185Z,13.28
2023-03-24T09:56:34.152Z,13.41
2023-03-24T09:59:09.620Z,13.45
2023-03-24T10:01:38.612Z,13.42
2023-03-24T10:04:16.779Z,13.26
2023-03-24T10:06:49.196Z,13.11
2023-03-24T10:09:28.151Z,13.09
2023-03-24T10:12:12.708Z,13.41
2023-03-24T10:15:00.226Z,13.76
2023-03-24T10:17:42.916Z,14.03
2023-03-24T10:20:28.702Z,14.25
2023-03-24T10:23:15.650Z,14.33
2023-03-24T10:25:53.285Z,14.34
2023-03-24T10:28:26.338Z,14.38
2023-03-24T10:30:58.488Z,14.42
2023-03-24T10:33:30.912Z,14.41
2023-03-24T10:36:07.992Z,14.37
2023-03-24T10:38:38.362Z,14.25
2023-03-24T10:41:07.956Z,14.03
2023-03-24T10:43:36.871Z,13.77
2023-03-24T10:46:07.010Z,13.55
2023-03-24T10:48:46.006Z,13.37
2023-03-24T10:51:18.617Z,13.25
2023-03-24T10:53:50.734Z,13.15
2023-03-24T10:56:41.039Z,13.19
2023-03-24T10:59:26.699Z,13.36
2023-03-24T11:02:03.231Z,13.45
2023-03-24T11:04:34.025Z,13.45
2023-03-24T11:07:07.161Z,13.38
2023-03-24T11:09:44.911Z,13.43
2023-03-24T11:12:30.671Z,13.57
2023-03-24T11:15:22.081Z,13.58
2023-03-24T11:17:57.636Z,13.54
2023-03-24T11:20:33.700Z,13.68
2023-03-24T11:23:07.924Z,14.02
2023-03-24T11:25:41.544Z,14.33
2023-03-24T11:28:16.573Z,14.57
2023-03-24T11:30:50.839Z,14.70
2023-03-24T11:33:35.088Z,14.92
2023-03-24T11:36:27.847Z,15.28
2023-03-24T11:39:01.871Z,15.58
2023-03-24T11:41:32.304Z,15.66
2023-03-24T11:44:19.048Z,15.70
2023-03-24T11:46:53.098Z,15.75
2023-03-24T11:49:31.903Z,15.79
2023-03-24T11:52:01.972Z,15.76
2023-03-24T11:54:37.213Z,15.84
2023-03-24T11:57:14.047Z,16.05
2023-03-24T11:59:52.040Z,16.13
2023-03-24T12:02:40.865Z,16.09
2023-03-24T12:05:30.752Z,16.07
2023-03-24T12:08:26.715Z,15.87
2023-03-24T12:11:08.941Z,15.66
2023-03-24T12:13:43.287Z,15.58
2023-03-24T12:16:33.332Z,15.43
2023-03-24T12:19:43.792Z,15.16
2023-03-24T12:22:25.724Z,15.00
2023-03-24T12:25:30.655Z,14.92
2023-03-24T12:28:20.046Z,15.01
2023-03-24T12:31:11.413Z,14.94
2023-03-24T12:33:55.436Z,14.88
2023-03-24T12:36:48.029Z,14.99
2023-03-24T12:39:22.279Z,15.34
2023-03-24T12:42:13.202Z,15.39
2023-03-24T12:45:09.011Z,15.52
2023-03-24T12:48:21.007Z,16.21
2023-03-24T12:51:09.958Z,16.69
2023-03-24T12:53:53.721Z,16.70
2023-03-24T12:56:31.697Z,16.80
2023-03-24T12:59:06.329Z,16.58
2023-03-24T13:01:39.150Z,16.31
2023-03-24T13:04:16.921Z,16.47
2023-03-24T13:06:53.438Z,17.01
2023-03-24T13:09:37.360Z,17.78
2023-03-24T13:12:15.144Z,18.28
2023-03-24T13:14:54.911Z,18.69
2023-03-24T13:17:29.592Z,19.22
2023-03-24T13:20:01.702Z,19.85
2023-03-24T13:22:32.704Z,20.08
2023-03-24T13:25:03.152Z,20.25
2023-03-24T13:27:38.193Z,20.30
2023-03-24T13:30:31.641Z,20.41
2023-03-24T13:33:06.436Z,20.47
2023-03-24T13:41:28.843Z,19.75
2023-03-24T13:44:04.286Z,19.13
2023-03-24T13:46:33.380Z,19.08
2023-03-24T13:49:04.944Z,19.24
2023-03-24T13:51:38.739Z,19.12
2023-03-24T13:54:16.374Z,19.03
2023-03-24T13:56:57.162Z,19.06
2023-03-24T13:59:33.013Z,18.81
2023-03-24T14:02:23.571Z,18.72
2023-03-24T14:05:08.144Z,19.31
2023-03-24T14:07:47.799Z,19.30
2023-03-24T14:10:46.885Z,19.68
2023-03-24T14:13:48.283Z,20.12
2023-03-24T14:16:46.313Z,19.72
2023-03-24T14:19:29.065Z,19.86
2023-03-24T14:22:14.295Z,19.60
2023-03-24T14:24:47.169Z,19.47
2023-03-24T14:27:38.653Z,18.63
2023-03-24T14:30:22.400Z,19.32
2023-03-24T14:32:56.998Z,19.87
2023-03-24T14:35:38.047Z,20.67
2023-03-24T14:38:24.288Z,21.40
2023-03-24T14:41:02.487Z,21.53
2023-03-24T14:43:58.957Z,21.62
2023-03-24T14:46:47.882Z,21.84
2023-03-24T14:49:31.317Z,22.10
2023-03-24T14:52:05.272Z,22.79
2023-03-24T14:54:42.696Z,22.93
2023-03-24T14:57:21.615Z,21.66
2023-03-24T15:00:01.354Z,21.53
2023-03-24T15:02:42.242Z,22.31
2023-03-24T15:05:28.865Z,22.68
2023-03-24T15:08:13.546Z,22.86
2023-03-24T15:10:50.581Z,23.00
2023-03-24T15:13:37.889Z,23.43
2023-03-24T15:16:20.397Z,23.90
2023-03-24T15:19:01.366Z,23.21
2023-03-24T15:21:36.457Z,21.52
2023-03-24T15:24:30.023Z,20.57
2023-03-24T15:27:21.641Z,20.35
2023-03-24T15:29:59.493Z,20.77
2023-03-24T15:32:33.020Z,21.14
2023-03-24T15:35:12.905Z,22.19
2023-03-24T15:37:49.062Z,22.45
2023-03-24T15:40:41.619Z,22.71
2023-03-24T15:43:21.846Z,23.22
2023-03-24T15:46:01.429Z,23.41
2023-03-24T15:48:38.277Z,22.86
2023-03-24T15:51:13.681Z,21.45
2023-03-24T15:53:49.602Z,20.89
2023-03-24T15:56:27.174Z,19.90
2023-03-24T15:59:00.255Z,18.96
2023-03-24T16:01:36.637Z,18.44
2023-03-24T16:04:12.886Z,18.03
2023-03-24T16:06:52.903Z,17.60
2023-03-24T16:09:28.072Z,17.32
2023-03-24T16:11:58.744Z,17.68
2023-03-24T16:14:34.170Z,17.92
2023-03-24T16:17:04.839Z,17.60
2023-03-24T16:19:34.389Z,17.55
2023-03-24T16:22:09.962Z,17.29
2023-03-24T16:24:40.475Z,17.03
2023-03-24T16:27:10.983Z,16.84
2023-03-24T16:29:43.464Z,16.72
2023-03-24T16:32:12.821Z,16.55
2023-03-24T16:34:42.287Z,16.35
2023-03-24T16:37:12.762Z,16.20
2023-03-24T16:39:41.781Z,16.17
2023-03-24T16:42:11.203Z,16.34
2023-03-24T16:44:41.614Z,16.41
2023-03-24T16:47:13.036Z,16.47
2023-03-24T16:49:42.327Z,16.30
2023-03-24T16:52:16.459Z,16.30
2023-03-24T16:54:46.725Z,16.03
2023-03-24T16:57:16.735Z,15.92
2023-03-24T16:59:46.408Z,15.80
2023-03-24T17:02:17.671Z,15.51
2023-03-24T17:04:48.308Z,15.28
2023-03-24T17:07:18.915Z,15.15
2023-03-24T17:09:50.668Z,15.06
2023-03-24T17:12:22.618Z,15.02
2023-03-24T17:14:51.378Z,14.90
2023-03-24T17:17:25.572Z,14.87
2023-03-24T17:19:55.376Z,14.81
2023-03-24T17:22:27.209Z,14.86
2023-03-24T17:25:01.000Z,15.00
2023-03-24T17:27:45.839Z,14.98
2023-03-24T17:30:23.066Z,14.86
2023-03-24T17:32:57.434Z,14.72
2023-03-24T17:35:31.696Z,14.64
2023-03-24T17:38:10.560Z,14.45
2023-03-24T17:40:43.494Z,14.28
2023-03-24T17:43:15.435Z,14.13
2023-03-24T17:45:45.372Z,14.02
2023-03-24T17:48:20.386Z,13.90
2023-03-24T17:50:50.353Z,13.79
2023-03-24T17:53:26.776Z,13.71
2023-03-24T17:56:05.077Z,13.67
2023-03-24T17:58:37.750Z,13.64
2023-03-24T18:01:15.336Z,13.60
2023-03-24T18:03:44.421Z,13.57
2023-03-24T18:06:17.323Z,13.52
2023-03-24T18:08:47.892Z,13.46
2023-03-24T18:11:17.963Z,13.35
2023-03-24T18:13:47.247Z,13.30
2023-03-24T18:16:22.034Z,13.28
2023-03-24T18:18:52.790Z,13.29
2023-03-24T18:21:22.955Z,13.29
2023-03-24T18:23:56.461Z,13.21
2023-03-24T18:26:26.979Z,13.13
2023-03-24T18:28:57.011Z,13.06
2023-03-24T18:31:28.851Z,13.01
2023-03-24T18:33:58.343Z,12.97
2023-03-24T18:36:29.508Z,12.87
2023-03-24T18:39:02.056Z,12.76
2023-03-24T18:41:37.517Z,12.65
2023-03-24T18:44:09.331Z,12.57
2023-03-24T18:46:38.377Z,12.51
2023-03-24T18:49:08.696Z,12.53
2023-03-24T18:51:41.087Z,12.56
2023-03-24T18:54:13.436Z,12.60
2023-03-24T18:56:43.006Z,12.59
2023-03-24T18:59:12.740Z,12.61
2023-03-24T19:01:41.892Z,12.59
2023-03-24T19:04:11.315Z,12.59
2023-03-24T19:06:43.837Z,12.60
2023-03-24T19:09:20.262Z,12.61
2023-03-24T19:11:49.175Z,12.61
2023-03-24T19:14:18.696Z,12.60
2023-03-24T19:16:50.950Z,12.55
2023-03-24T19:19:20.586Z,12.49
2023-03-24T19:22:03.860Z,12.45
2023-03-24T19:24:35.282Z,12.44
2023-03-24T19:27:05.325Z,12.41
2023-03-24T19:29:34.845Z,12.38
2023-03-24T19:32:05.261Z,12.33
2023-03-24T19:34:33.844Z,12.23
2023-03-24T19:37:03.958Z,12.12
2023-03-24T19:39:34.831Z,12.03
2023-03-24T19:42:09.178Z,11.96
2023-03-24T19:44:38.498Z,11.90
2023-03-24T19:47:11.316Z,11.87
2023-03-24T19:49:40.833Z,11.83
2023-03-24T19:52:28.737Z,11.79
2023-03-24T19:55:00.363Z,11.81
2023-03-24T19:57:30.866Z,11.82
2023-03-24T20:00:00.663Z,11.80
2023-03-24T20:02:29.853Z,11.76
2023-03-24T20:05:00.162Z,11.66
2023-03-24T20:07:30.400Z,11.57
2023-03-24T20:10:01.360Z,11.48
2023-03-24T20:12:30.900Z,11.40
2023-03-24T20:15:00.946Z,11.33
2023-03-24T20:17:36.490Z,11.28
2023-03-24T20:20:08.083Z,11.21
2023-03-24T20:22:38.251Z,11.19
2023-03-24T20:25:12.143Z,11.19
2023-03-24T20:27:41.695Z,11.19
2023-03-24T20:30:13.530Z,11.20
2023-03-24T20:32:42.675Z,11.19
2023-03-24T20:35:13.779Z,11.20
2023-03-24T20:37:42.945Z,11.25
2023-03-24T20:40:14.380Z,11.24
2023-03-24T20:42:43.878Z,11.26
2023-03-24T20:45:17.904Z,11.26
2023-03-24T20:47:47.570Z,11.22
2023-03-24T20:50:18.527Z,11.23
2023-03-24T20:52:47.737Z,11.24
2023-03-24T20:55:19.471Z,11.33
2023-03-24T20:57:48.761Z,11.41
2023-03-24T21:00:20.606Z,11.45
2023-03-24T21:02:49.962Z,11.46
2023-03-24T21:05:19.230Z,11.47
2023-03-24T21:07:48.508Z,11.44
2023-03-24T21:10:28.547Z,11.39
2023-03-24T21:12:58.219Z,11.33
2023-03-24T21:15:30.733Z,11.27
2023-03-24T21:18:00.990Z,11.21
2023-03-24T21:20:31.762Z,11.19
2023-03-24T21:23:04.500Z,11.20
2023-03-24T21:25:51.285Z,11.20
2023-03-24T21:28:28.456Z,11.20
2023-03-24T21:30:58.628Z,11.21
2023-03-24T21:33:29.316Z,11.26
2023-03-24T21:36:01.504Z,11.32
2023-03-24T21:38:30.906Z,11.35
2023-03-24T21:41:02.378Z,11.37
2023-03-24T21:43:32.337Z,11.35
2023-03-24T21:46:05.077Z,11.34
2023-03-24T21:48:35.240Z,11.35
2023-03-24T21:51:05.582Z,11.39
2023-03-24T21:53:35.258Z,11.44
2023-03-24T21:56:11.061Z,11.51
2023-03-24T21:58:42.253Z,11.53
2023-03-24T22:01:21.975Z,11.54
2023-03-24T22:03:54.533Z,11.52
2023-03-24T22:06:30.243Z,11.52
2023-03-24T22:09:06.823Z,11.53
2023-03-24T22:11:43.013Z,11.47
2023-03-24T22:14:13.189Z,11.35
2023-03-24T22:16:43.187Z,11.26
2023-03-24T22:19:17.886Z,11.20
2023-03-24T22:21:50.550Z,11.16
2023-03-24T22:24:25.960Z,11.11
2023-03-24T22:26:59.199Z,11.07
2023-03-24T22:29:30.205Z,11.06
2023-03-24T22:32:00.354Z,11.03
2023-03-24T22:34:31.001Z,11.02
2023-03-24T22:37:01.041Z,11.04
2023-03-24T22:39:33.452Z,11.07
2023-03-24T22:42:04.090Z,11.13
2023-03-24T22:44:34.139Z,11.18
2023-03-24T22:47:05.247Z,11.25
2023-03-24T22:49:34.545Z,11.31
2023-03-24T22:52:05.128Z,11.37
2023-03-24T22:54:34.645Z,11.41
2023-03-24T22:57:05.433Z,11.44
2023-03-24T22:59:44.613Z,11.44
2023-03-24T23:02:15.920Z,11.44
2023-03-24T23:04:51.673Z,11.43
2023-03-24T23:07:24.294Z,11.41
2023-03-24T23:09:53.483Z,11.41
2023-03-24T23:12:25.774Z,11.41
2023-03-24T23:14:56.849Z,11.44
2023-03-24T23:17:26.860Z,11.45
2023-03-24T23:19:56.682Z,11.50
2023-03-24T23:22:27.050Z,11.50
2023-03-24T23:25:02.688Z,11.52
2023-03-24T23:27:37.881Z,11.53
2023-03-24T23:30:11.583Z,11.54
2023-03-24T23:32:44.290Z,11.54
2023-03-24T23:35:16.082Z,11.55
2023-03-24T23:37:45.372Z,11.55
2023-03-24T23:40:16.895Z,11.58
2023-03-24T23:42:50.738Z,11.58
2023-03-24T23:45:22.594Z,11.58
2023-03-24T23:47:52.901Z,11.57
2023-03-24T23:50:38.471Z,11.56
2023-03-24T23:53:12.893Z,11.57
2023-03-24T23:55:53.200Z,11.56
2023-03-24T23:58:33.587Z,11.54
